Time;durP1;ratioP1;P1;durP2;ratioP2;P2;SDS_P1;SDS_P2;PMS_P1;PMS_P2;Temp;Humidity;BMP_temperature;BMP_pressure;BME280_temperature;BME280_humidity;BME280_pressure;Samples;Min_cycle;Max_cycle;Signal;HPM_P1;HPM_P2
2023/05/20 00:01:43;;;;;;;5.00;1.50;;;12.70;74.70;;;;;;5051460;28;20041;-46
2023/05/20 00:04:09;;;;;;;5.43;1.90;;;12.80;74.30;;;;;;5034184;28;20025;-46
2023/05/20 00:06:36;;;;;;;4.90;1.67;;;12.80;74.10;;;;;;5046284;28;20037;-45
2023/05/20 00:09:03;;;;;;;8.88;1.92;;;12.70;74.10;;;;;;5034904;28;20033;-45
2023/05/20 00:11:29;;;;;;;5.95;2.42;;;12.70;74.10;;;;;;5052029;28;20028;-46
2023/05/20 00:13:55;;;;;;;4.65;1.58;;;12.70;74.30;;;;;;5053446;28;20021;-49
2023/05/20 00:16:22;;;;;;;6.18;1.83;;;12.70;73.60;;;;;;5031943;28;20033;-45
2023/05/20 00:18:49;;;;;;;4.53;1.75;;;12.70;73.40;;;;;;5053614;28;20061;-46
2023/05/20 00:21:16;;;;;;;6.22;2.60;;;12.70;73.50;;;;;;5053314;28;20053;-46
2023/05/20 00:23:43;;;;;;;4.75;1.70;;;12.70;73.30;;;;;;5035077;28;20113;-46
2023/05/20 00:26:10;;;;;;;8.85;1.80;;;12.70;73.10;;;;;;5048459;28;20029;-45
2023/05/20 00:28:37;;;;;;;2.88;1.50;;;12.70;72.80;;;;;;5052976;28;20021;-49
2023/05/20 00:31:04;;;;;;;7.72;1.80;;;12.70;72.60;;;;;;5047580;28;20029;-47
2023/05/20 00:33:32;;;;;;;5.40;1.83;;;12.70;72.00;;;;;;5045504;28;20079;-47
2023/05/20 00:35:59;;;;;;;3.72;1.38;;;12.60;72.20;;;;;;5043393;28;20144;-46
2023/05/20 00:38:26;;;;;;;6.15;1.98;;;12.70;72.60;;;;;;5033338;28;20116;-50
2023/05/20 00:40:55;;;;;;;4.72;1.50;;;12.60;72.40;;;;;;5052632;28;20116;-46
2023/05/20 00:43:24;;;;;;;4.30;1.50;;;12.60;72.50;;;;;;5053199;28;20113;-46
2023/05/20 00:45:54;;;;;;;2.47;1.38;;;12.50;72.80;;;;;;5051447;28;20040;-45
2023/05/20 00:48:21;;;;;;;4.05;1.55;;;12.50;71.90;;;;;;5051487;28;20029;-45
2023/05/20 00:50:49;;;;;;;5.35;1.95;;;12.60;72.10;;;;;;5052528;28;20028;-47
2023/05/20 00:53:17;;;;;;;3.17;1.48;;;12.50;72.60;;;;;;5038914;28;20040;-45
2023/05/20 00:55:44;;;;;;;3.20;1.48;;;12.50;71.30;;;;;;5029302;28;20036;-49
2023/05/20 00:58:11;;;;;;;5.28;1.60;;;12.50;71.60;;;;;;5052204;28;20082;-45
2023/05/20 01:00:39;;;;;;;5.20;1.42;;;12.50;71.40;;;;;;5017832;28;20029;-45
2023/05/20 01:03:06;;;;;;;4.13;1.50;;;12.40;71.80;;;;;;5052092;28;20021;-49
2023/05/20 01:05:31;;;;;;;3.35;1.42;;;12.40;69.70;;;;;;5034798;28;20033;-44
2023/05/20 01:07:58;;;;;;;3.65;1.40;;;12.50;70.70;;;;;;5049102;28;20033;-47
2023/05/20 01:10:29;;;;;;;3.10;1.23;;;12.50;71.20;;;;;;5051406;28;20029;-51
2023/05/20 01:13:00;;;;;;;4.72;1.30;;;12.40;70.00;;;;;;5048208;28;20049;-45
2023/05/20 01:15:31;;;;;;;4.03;1.13;;;12.40;70.40;;;;;;5037673;28;20018;-45
2023/05/20 01:18:05;;;;;;;2.72;1.40;;;12.40;69.20;;;;;;5051889;28;20036;-47
2023/05/20 01:20:32;;;;;;;3.78;1.63;;;12.40;69.80;;;;;;5036898;28;20068;-45
2023/05/20 01:22:59;;;;;;;3.00;1.23;;;12.40;69.60;;;;;;5032904;28;20044;-47
2023/05/20 01:25:29;;;;;;;4.07;1.05;;;12.40;69.80;;;;;;5048089;28;20095;-46
2023/05/20 01:27:56;;;;;;;7.30;1.80;;;12.40;70.20;;;;;;5045180;28;20039;-45
2023/05/20 01:30:29;;;;;;;4.00;1.95;;;12.40;69.30;;;;;;5033401;28;20036;-46
2023/05/20 01:33:00;;;;;;;4.03;1.23;;;12.30;68.50;;;;;;5051144;28;20017;-47
2023/05/20 01:35:27;;;;;;;5.82;1.25;;;12.30;67.80;;;;;;5052089;28;20028;-50
2023/05/20 01:37:59;;;;;;;4.55;1.35;;;12.40;68.00;;;;;;5054672;28;20044;-48
2023/05/20 01:40:28;;;;;;;6.38;1.50;;;12.30;68.40;;;;;;5055714;28;20501;-47
2023/05/20 01:42:56;;;;;;;3.35;1.00;;;12.30;68.60;;;;;;5047415;28;20061;-45
2023/05/20 01:45:24;;;;;;;3.20;1.30;;;12.30;69.20;;;;;;5033151;28;20138;-45
2023/05/20 01:47:51;;;;;;;3.55;1.67;;;12.30;68.70;;;;;;5055047;28;20467;-45
2023/05/20 01:50:18;;;;;;;2.20;0.77;;;12.20;68.70;;;;;;5034282;28;20029;-45
2023/05/20 01:52:45;;;;;;;6.55;1.98;;;12.20;68.80;;;;;;5038939;28;20042;-45
2023/05/20 01:55:12;;;;;;;3.20;1.13;;;12.20;69.30;;;;;;5049635;28;20108;-45
2023/05/20 01:57:38;;;;;;;3.78;1.40;;;12.10;69.60;;;;;;5033735;28;20087;-45
2023/05/20 02:00:06;;;;;;;3.90;0.98;;;12.00;69.10;;;;;;5035919;28;20025;-47
2023/05/20 02:02:34;;;;;;;3.97;1.42;;;11.90;69.20;;;;;;5049997;28;20037;-46
2023/05/20 02:05:01;;;;;;;3.00;1.30;;;11.90;70.10;;;;;;5049428;28;20039;-46
2023/05/20 02:07:27;;;;;;;4.63;1.23;;;11.90;70.00;;;;;;5046318;28;20029;-47
2023/05/20 02:09:54;;;;;;;3.28;1.42;;;11.90;70.60;;;;;;5048624;28;20043;-47
2023/05/20 02:12:21;;;;;;;2.42;0.95;;;11.80;70.90;;;;;;5055052;28;20040;-47
2023/05/20 02:14:49;;;;;;;4.10;1.25;;;11.70;71.60;;;;;;5037533;28;20033;-47
2023/05/20 02:17:16;;;;;;;3.05;1.15;;;11.60;71.60;;;;;;5053941;28;20529;-46
2023/05/20 02:19:44;;;;;;;3.78;1.02;;;11.50;72.20;;;;;;5055551;28;20459;-45
2023/05/20 02:22:12;;;;;;;6.05;1.67;;;11.40;72.60;;;;;;5055236;28;20037;-48
2023/05/20 02:24:38;;;;;;;4.60;1.70;;;11.40;72.90;;;;;;5035037;28;20040;-50
2023/05/20 02:27:05;;;;;;;4.50;1.40;;;11.30;73.00;;;;;;5036331;28;20073;-46
2023/05/20 02:29:32;;;;;;;3.75;1.23;;;11.40;72.80;;;;;;5054787;28;20032;-49
2023/05/20 02:31:58;;;;;;;3.38;0.98;;;11.30;73.10;;;;;;5053883;28;20029;-47
2023/05/20 02:34:29;;;;;;;3.95;1.13;;;11.30;73.30;;;;;;5050626;28;20025;-45
2023/05/20 02:36:55;;;;;;;4.50;1.10;;;11.20;73.10;;;;;;5054502;28;20397;-47
2023/05/20 02:39:22;;;;;;;3.95;1.20;;;11.30;73.50;;;;;;5050930;28;20110;-48
2023/05/20 02:41:49;;;;;;;3.30;1.48;;;11.30;73.40;;;;;;5044849;28;20108;-46
2023/05/20 02:44:16;;;;;;;3.65;1.38;;;11.30;73.60;;;;;;5054099;28;20374;-48
2023/05/20 02:46:43;;;;;;;4.88;1.38;;;11.20;73.60;;;;;;5054159;28;20457;-47
2023/05/20 02:49:10;;;;;;;3.55;1.23;;;11.20;73.80;;;;;;5047069;28;20029;-49
2023/05/20 02:51:38;;;;;;;6.05;1.20;;;11.20;74.00;;;;;;5035759;28;20477;-45
2023/05/20 02:54:06;;;;;;;9.15;2.83;;;11.10;74.00;;;;;;5039785;28;20029;-46
2023/05/20 02:56:33;;;;;;;4.03;1.17;;;11.10;74.10;;;;;;5053697;28;20037;-48
2023/05/20 02:59:00;;;;;;;6.18;1.60;;;11.10;73.70;;;;;;5051715;28;20029;-48
2023/05/20 03:01:27;;;;;;;2.92;1.35;;;11.10;73.80;;;;;;5035420;28;20116;-46
2023/05/20 03:03:54;;;;;;;3.75;1.48;;;11.10;73.70;;;;;;5050572;28;20166;-47
2023/05/20 03:06:20;;;;;;;2.90;1.00;;;11.00;73.30;;;;;;5054216;28;20454;-49
2023/05/20 03:08:47;;;;;;;3.58;1.30;;;11.00;73.00;;;;;;5053503;28;20339;-51
2023/05/20 03:11:14;;;;;;;4.38;1.15;;;11.10;73.30;;;;;;5052162;28;20108;-48
2023/05/20 03:13:41;;;;;;;3.75;1.25;;;11.00;73.30;;;;;;5031772;28;20032;-47
2023/05/20 03:16:07;;;;;;;4.18;1.23;;;11.10;73.80;;;;;;5052580;28;20041;-50
2023/05/20 03:18:34;;;;;;;3.80;1.30;;;11.00;74.20;;;;;;5053835;28;20032;-46
2023/05/20 03:21:03;;;;;;;3.28;0.93;;;11.00;74.30;;;;;;5049119;28;20529;-48
2023/05/20 03:23:30;;;;;;;2.95;1.25;;;11.00;73.90;;;;;;5017198;28;20069;-49
2023/05/20 03:25:57;;;;;;;2.33;1.00;;;11.10;74.50;;;;;;5051099;28;20045;-45
2023/05/20 03:28:24;;;;;;;2.72;1.10;;;11.00;74.70;;;;;;5036760;28;20033;-45
2023/05/20 03:30:49;;;;;;;3.97;1.35;;;11.00;74.20;;;;;;5052633;28;20028;-49
2023/05/20 03:33:19;;;;;;;4.13;1.52;;;11.00;74.00;;;;;;5032477;28;20358;-45
2023/05/20 03:35:46;;;;;;;2.88;1.30;;;11.00;74.10;;;;;;5054229;28;20474;-46
2023/05/20 03:38:13;;;;;;;4.85;1.60;;;11.10;73.70;;;;;;5051254;28;20033;-45
2023/05/20 03:40:40;;;;;;;2.25;0.90;;;11.10;74.00;;;;;;5054190;28;20446;-45
2023/05/20 03:43:07;;;;;;;4.07;1.40;;;11.10;74.50;;;;;;5050433;28;20112;-45
2023/05/20 03:45:37;;;;;;;3.75;1.15;;;11.10;74.80;;;;;;5053203;28;20036;-45
2023/05/20 03:48:03;;;;;;;4.90;1.60;;;11.20;75.40;;;;;;5053243;28;20033;-47
2023/05/20 03:50:32;;;;;;;2.53;1.52;;;11.20;75.50;;;;;;5047819;28;20073;-45
2023/05/20 03:52:59;;;;;;;3.55;1.85;;;11.20;75.10;;;;;;5040662;28;20115;-45
2023/05/20 03:55:26;;;;;;;5.40;1.75;;;11.20;74.70;;;;;;5053938;28;20385;-45
2023/05/20 03:57:53;;;;;;;3.90;1.38;;;11.20;74.50;;;;;;5052852;28;20071;-45
2023/05/20 04:00:23;;;;;;;4.97;1.40;;;11.20;74.20;;;;;;5043428;28;20026;-46
2023/05/20 04:02:51;;;;;;;2.58;1.33;;;11.20;73.90;;;;;;5050678;28;20107;-45
2023/05/20 04:05:20;;;;;;;4.90;2.10;;;11.20;73.40;;;;;;5034699;28;20032;-45
2023/05/20 04:07:48;;;;;;;4.30;1.75;;;11.30;73.70;;;;;;5052740;28;20032;-45
2023/05/20 04:10:17;;;;;;;5.50;1.60;;;11.20;74.70;;;;;;5053338;28;20043;-47
2023/05/20 04:12:44;;;;;;;2.75;1.13;;;11.30;74.40;;;;;;5050336;28;20033;-46
2023/05/20 04:15:15;;;;;;;4.93;1.30;;;11.40;73.70;;;;;;5052833;28;20631;-46
2023/05/20 04:17:42;;;;;;;4.30;1.55;;;11.40;73.90;;;;;;5038872;28;20124;-45
2023/05/20 04:20:10;;;;;;;4.10;1.23;;;11.40;74.60;;;;;;5020097;28;20033;-45
2023/05/20 04:22:38;;;;;;;3.85;1.17;;;11.40;75.50;;;;;;5045227;28;20037;-45
2023/05/20 04:25:05;;;;;;;2.88;1.38;;;11.50;76.00;;;;;;5053361;28;20409;-45
2023/05/20 04:27:32;;;;;;;5.30;1.52;;;11.60;75.90;;;;;;5052420;28;20044;-47
2023/05/20 04:30:01;;;;;;;3.22;1.25;;;11.70;75.50;;;;;;5034880;28;20057;-47
2023/05/20 04:32:27;;;;;;;4.55;1.73;;;11.80;74.90;;;;;;5051118;28;20090;-45
2023/05/20 04:34:54;;;;;;;3.08;1.45;;;11.90;74.20;;;;;;5044074;28;20563;-45
2023/05/20 04:37:21;;;;;;;3.00;1.40;;;11.90;71.80;;;;;;5038150;28;20025;-48
2023/05/20 04:39:48;;;;;;;2.95;1.02;;;11.90;71.70;;;;;;5050162;28;20053;-45
2023/05/20 04:42:20;;;;;;;2.22;1.08;;;12.00;71.90;;;;;;5034641;28;20040;-53
2023/05/20 04:44:48;;;;;;;10.50;1.60;;;11.90;72.30;;;;;;5053110;28;20409;-46
2023/05/20 04:47:17;;;;;;;2.85;1.10;;;11.90;72.50;;;;;;5052084;28;20098;-45
2023/05/20 04:49:44;;;;;;;3.90;1.40;;;11.90;72.40;;;;;;5050535;28;20032;-46
2023/05/20 04:52:11;;;;;;;3.88;1.27;;;11.90;71.80;;;;;;5052159;28;20021;-45
2023/05/20 04:54:39;;;;;;;6.40;1.15;;;11.90;71.60;;;;;;5052991;28;20033;-45
2023/05/20 04:57:08;;;;;;;9.18;1.80;;;11.90;71.40;;;;;;5041891;28;20347;-45
2023/05/20 04:59:36;;;;;;;3.08;1.13;;;11.90;71.30;;;;;;5048899;28;20036;-45
2023/05/20 05:02:02;;;;;;;5.32;1.20;;;12.00;71.20;;;;;;5050739;28;20043;-47
2023/05/20 05:04:31;;;;;;;2.65;1.17;;;12.00;71.30;;;;;;5050872;28;20112;-45
2023/05/20 05:06:58;;;;;;;2.67;1.00;;;12.00;71.00;;;;;;5031000;28;20068;-46
2023/05/20 05:09:25;;;;;;;5.13;1.40;;;12.00;71.00;;;;;;5050512;28;20033;-46
2023/05/20 05:11:51;;;;;;;5.00;1.25;;;12.00;70.30;;;;;;5036282;28;20108;-45
2023/05/20 05:14:18;;;;;;;2.63;1.10;;;12.00;71.10;;;;;;5053616;28;20116;-47
2023/05/20 05:16:47;;;;;;;3.88;1.30;;;12.10;71.10;;;;;;5049309;28;20041;-45
2023/05/20 05:19:14;;;;;;;4.67;1.20;;;12.10;70.60;;;;;;5055947;28;20048;-45
2023/05/20 05:21:39;;;;;;;3.88;1.38;;;12.10;70.70;;;;;;5054331;28;20295;-49
2023/05/20 05:24:09;;;;;;;4.55;1.88;;;12.10;71.00;;;;;;5039412;28;20044;-45
2023/05/20 05:26:36;;;;;;;6.03;1.67;;;12.10;70.80;;;;;;5044215;28;20025;-46
2023/05/20 05:29:03;;;;;;;5.75;1.35;;;12.20;71.60;;;;;;5043848;28;20051;-45
2023/05/20 05:31:29;;;;;;;4.15;1.30;;;12.20;71.70;;;;;;5036641;28;20408;-45
2023/05/20 05:33:56;;;;;;;2.75;1.00;;;12.20;71.70;;;;;;5055932;28;20393;-46
2023/05/20 05:36:24;;;;;;;3.50;1.23;;;12.20;70.90;;;;;;5031541;28;20025;-47
2023/05/20 05:38:51;;;;;;;5.53;1.90;;;12.30;71.00;;;;;;5038077;28;20454;-46
2023/05/20 05:41:18;;;;;;;3.85;1.38;;;12.40;70.70;;;;;;5035876;28;20072;-47
2023/05/20 05:43:45;;;;;;;4.00;1.38;;;12.40;71.00;;;;;;5054732;28;20033;-51
2023/05/20 05:46:11;;;;;;;3.13;1.38;;;12.60;71.60;;;;;;5054915;28;20064;-45
2023/05/20 05:48:37;;;;;;;2.80;1.27;;;12.70;70.80;;;;;;5042623;28;20033;-46
2023/05/20 05:51:04;;;;;;;3.13;1.55;;;12.80;70.20;;;;;;5049815;28;20048;-48
2023/05/20 05:53:31;;;;;;;2.45;1.30;;;12.90;70.70;;;;;;5055348;28;20339;-48
2023/05/20 05:55:58;;;;;;;3.92;1.52;;;12.90;69.70;;;;;;5050821;28;20028;-48
2023/05/20 05:58:25;;;;;;;3.97;1.48;;;12.90;69.70;;;;;;5055026;28;20471;-46
2023/05/20 06:00:54;;;;;;;3.78;1.52;;;12.90;70.50;;;;;;5050520;28;20025;-47
2023/05/20 06:03:21;;;;;;;3.83;1.33;;;12.80;70.40;;;;;;5052767;28;20025;-50
2023/05/20 06:05:48;;;;;;;4.35;1.20;;;12.90;70.80;;;;;;5053057;28;20025;-45
2023/05/20 06:08:15;;;;;;;2.33;1.20;;;12.80;70.60;;;;;;5034698;28;20447;-46
2023/05/20 06:10:49;;;;;;;2.63;1.20;;;12.90;71.50;;;;;;5051553;28;20100;-50
2023/05/20 06:13:16;;;;;;;3.03;1.48;;;12.90;70.80;;;;;;5052978;28;20442;-47
2023/05/20 06:15:44;;;;;;;6.75;1.25;;;12.80;71.10;;;;;;5034424;28;20033;-47
2023/05/20 06:18:12;;;;;;;4.55;1.20;;;12.90;71.70;;;;;;5049820;28;20432;-48
2023/05/20 06:20:39;;;;;;;5.70;1.50;;;12.90;71.70;;;;;;5054384;28;20059;-47
2023/05/20 06:23:06;;;;;;;16.17;2.15;;;12.90;70.80;;;;;;5052530;28;20048;-45
2023/05/20 06:25:31;;;;;;;7.00;1.45;;;13.00;72.20;;;;;;5034140;28;20033;-47
2023/05/20 06:28:01;;;;;;;4.30;1.42;;;13.20;70.90;;;;;;5049045;28;20036;-48
2023/05/20 06:30:28;;;;;;;2.88;1.02;;;13.20;71.70;;;;;;5053064;28;20032;-51
2023/05/20 06:32:55;;;;;;;4.28;1.88;;;13.30;71.00;;;;;;5032514;28;20048;-45
2023/05/20 06:35:20;;;;;;;3.63;1.40;;;13.20;70.70;;;;;;5033549;28;20123;-49
2023/05/20 06:37:49;;;;;;;3.60;1.42;;;13.20;71.60;;;;;;5042052;28;20048;-48
2023/05/20 06:40:16;;;;;;;2.75;1.65;;;13.30;71.50;;;;;;5035673;28;20029;-48
2023/05/20 06:42:43;;;;;;;5.80;2.42;;;13.10;71.20;;;;;;5007627;28;20034;-45
2023/05/20 06:45:09;;;;;;;5.00;1.75;;;13.10;71.90;;;;;;5052675;28;20047;-47
2023/05/20 06:47:35;;;;;;;4.38;1.58;;;13.20;72.40;;;;;;5032988;28;20030;-48
2023/05/20 06:50:01;;;;;;;6.07;2.05;;;13.20;72.30;;;;;;5049225;28;20021;-45
2023/05/20 06:52:29;;;;;;;3.97;1.27;;;13.20;72.00;;;;;;5045150;28;20029;-49
2023/05/20 06:54:59;;;;;;;5.32;1.60;;;13.30;72.50;;;;;;5054024;28;20028;-47
2023/05/20 06:57:27;;;;;;;3.78;1.42;;;13.40;73.00;;;;;;5036559;28;20090;-46
2023/05/20 06:59:56;;;;;;;4.90;1.35;;;13.50;73.40;;;;;;5053004;28;20055;-46
2023/05/20 07:02:22;;;;;;;3.47;1.60;;;13.40;73.10;;;;;;5050173;28;20563;-46
2023/05/20 07:04:48;;;;;;;7.18;1.73;;;13.50;72.60;;;;;;5049245;28;20032;-49
2023/05/20 07:07:15;;;;;;;3.70;1.40;;;13.50;72.30;;;;;;5049218;28;20032;-46
2023/05/20 07:09:42;;;;;;;5.65;1.67;;;13.60;72.10;;;;;;5053240;28;20021;-50
2023/05/20 07:12:09;;;;;;;5.75;1.95;;;13.60;71.80;;;;;;5036064;28;20395;-48
2023/05/20 07:14:38;;;;;;;4.28;1.77;;;13.60;72.50;;;;;;5051477;28;20025;-47
2023/05/20 07:17:05;;;;;;;6.65;1.50;;;13.70;72.00;;;;;;5051225;28;20076;-47
2023/05/20 07:19:32;;;;;;;4.28;2.00;;;13.90;73.10;;;;;;5032936;28;20397;-45
2023/05/20 07:21:59;;;;;;;11.32;2.45;;;13.90;71.20;;;;;;5028092;28;20041;-48
2023/05/20 07:24:26;;;;;;;3.85;1.92;;;14.00;70.40;;;;;;5026743;28;20033;-47
2023/05/20 07:26:56;;;;;;;5.65;1.70;;;14.20;70.40;;;;;;5050378;28;20350;-46
2023/05/20 07:29:21;;;;;;;4.00;1.55;;;14.40;69.20;;;;;;5052623;28;20017;-47
2023/05/20 07:31:48;;;;;;;3.83;1.50;;;14.70;69.30;;;;;;5053365;28;20354;-47
2023/05/20 07:34:13;;;;;;;4.70;1.70;;;15.30;68.00;;;;;;5052333;28;20033;-45
2023/05/20 07:36:40;;;;;;;3.78;1.48;;;15.70;65.30;;;;;;5032820;28;20031;-46
2023/05/20 07:39:07;;;;;;;3.30;1.20;;;16.10;64.30;;;;;;5051083;28;20025;-46
2023/05/20 07:41:34;;;;;;;4.82;1.90;;;16.30;64.10;;;;;;5053005;28;20048;-47
2023/05/20 07:44:03;;;;;;;3.53;1.23;;;16.40;63.60;;;;;;5052115;28;20021;-47
2023/05/20 07:46:30;;;;;;;4.38;1.83;;;16.60;64.20;;;;;;5044958;28;20040;-46
2023/05/20 07:48:57;;;;;;;4.25;1.25;;;16.90;62.90;;;;;;5045277;28;20037;-45
2023/05/20 07:51:24;;;;;;;8.23;1.52;;;17.20;61.90;;;;;;5048880;28;20025;-47
2023/05/20 07:53:51;;;;;;;5.35;1.90;;;17.40;60.60;;;;;;5045645;28;20021;-46
2023/05/20 07:56:17;;;;;;;6.18;1.80;;;17.50;60.10;;;;;;5039359;28;20061;-45
2023/05/20 07:58:51;;;;;;;6.90;1.80;;;17.90;59.70;;;;;;5048182;28;20072;-46
2023/05/20 08:01:17;;;;;;;5.32;1.55;;;18.30;60.40;;;;;;5048609;28;20048;-46
2023/05/20 08:03:44;;;;;;;4.55;1.85;;;18.60;58.70;;;;;;5030036;28;20033;-46
2023/05/20 08:06:09;;;;;;;10.70;2.15;;;18.80;56.90;;;;;;5052475;28;20033;-48
2023/05/20 08:08:39;;;;;;;5.70;1.83;;;18.90;57.30;;;;;;5048112;28;20021;-50
2023/05/20 08:11:06;;;;;;;;;;;19.20;56.60;;;;;;5033961;28;20098;-50
2023/05/20 08:13:33;;;;;;;4.60;2.22;;;18.90;56.70;;;;;;5033893;28;20350;-46
2023/05/20 08:16:02;;;;;;;7.22;2.33;;;19.00;56.20;;;;;;5051746;28;20029;-48
2023/05/20 08:18:31;;;;;;;4.35;2.08;;;18.90;55.90;;;;;;5041342;28;20332;-46
2023/05/20 08:20:57;;;;;;;5.30;2.25;;;18.90;57.60;;;;;;5052658;28;20362;-46
2023/05/20 08:23:24;;;;;;;4.25;1.40;;;18.90;57.40;;;;;;5048199;28;20044;-45
2023/05/20 08:25:51;;;;;;;4.40;1.67;;;19.40;58.10;;;;;;5047841;28;20022;-45
2023/05/20 08:28:18;;;;;;;5.03;2.00;;;19.60;56.60;;;;;;5031586;28;20037;-47
2023/05/20 08:30:46;;;;;;;7.72;2.53;;;19.90;56.20;;;;;;5045381;28;20033;-46
2023/05/20 08:33:12;;;;;;;3.43;1.83;;;20.10;56.70;;;;;;5049077;28;20021;-45
2023/05/20 08:35:39;;;;;;;4.93;1.92;;;19.80;55.60;;;;;;5047882;28;20034;-45
2023/05/20 08:38:05;;;;;;;5.82;1.80;;;19.70;57.10;;;;;;5043020;28;20440;-47
2023/05/20 08:40:37;;;;;;;6.15;2.00;;;19.50;58.20;;;;;;5041341;28;20090;-46
2023/05/20 08:43:04;;;;;;;3.63;1.77;;;19.50;57.60;;;;;;5029402;28;20462;-47
2023/05/20 08:45:32;;;;;;;3.75;1.63;;;19.50;58.60;;;;;;5048514;28;20061;-46
2023/05/20 08:48:00;;;;;;;4.35;2.28;;;19.60;58.40;;;;;;5048490;28;20120;-46
2023/05/20 08:50:27;;;;;;;3.70;1.88;;;19.60;57.70;;;;;;5044811;28;20029;-46
2023/05/20 08:52:54;;;;;;;4.15;2.00;;;19.70;58.50;;;;;;5052688;28;20021;-46
2023/05/20 08:55:37;;;;;;;4.07;1.77;;;19.40;57.10;;;;;;5052996;28;20021;-46
2023/05/20 08:58:04;;;;;;;8.82;2.20;;;19.10;57.70;;;;;;5051351;28;20454;-46
2023/05/20 09:00:31;;;;;;;7.47;1.83;;;19.00;60.30;;;;;;5051882;28;20210;-50
2023/05/20 09:02:59;;;;;;;6.40;2.50;;;18.90;60.70;;;;;;5051214;28;20330;-46
2023/05/20 09:05:26;;;;;;;5.57;1.80;;;18.80;61.10;;;;;;5047321;28;20034;-46
2023/05/20 09:08:07;;;;;;;5.88;2.10;;;18.80;60.20;;;;;;5049534;28;20080;-47
2023/05/20 09:10:37;;;;;;;3.55;1.75;;;18.70;60.10;;;;;;5051862;28;20111;-46
2023/05/20 09:13:05;;;;;;;3.67;1.85;;;18.90;61.30;;;;;;5035262;28;20060;-46
2023/05/20 09:15:33;;;;;;;3.25;1.88;;;19.00;63.70;;;;;;5051805;28;20040;-46
2023/05/20 09:18:05;;;;;;;4.68;2.17;;;19.10;62.50;;;;;;5049222;28;20047;-47
2023/05/20 09:20:39;;;;;;;4.78;1.83;;;19.20;62.80;;;;;;5031340;28;20052;-48
2023/05/20 09:23:09;;;;;;;4.80;1.92;;;19.60;63.30;;;;;;5045671;28;20029;-46
2023/05/20 09:25:36;;;;;;;8.45;2.20;;;19.50;62.20;;;;;;5048844;28;20134;-46
2023/05/20 09:28:06;;;;;;;4.60;2.42;;;19.50;60.30;;;;;;5050859;28;20029;-46
2023/05/20 09:30:33;;;;;;;;;;;19.40;61.70;;;;;;5052351;28;20059;-47
2023/05/20 09:33:03;;;;;;;4.28;1.88;;;19.40;64.40;;;;;;5051461;28;19909;-47
2023/05/20 09:35:30;;;;;;;5.25;2.30;;;19.50;62.70;;;;;;5032405;28;20033;-46
2023/05/20 09:37:57;;;;;;;5.70;1.90;;;19.50;62.80;;;;;;5052277;28;20473;-46
2023/05/20 09:40:28;;;;;;;5.28;1.80;;;19.80;60.80;;;;;;5044982;28;20052;-46
2023/05/20 09:43:03;;;;;;;4.07;2.10;;;19.90;60.90;;;;;;5040888;28;20493;-47
2023/05/20 09:45:34;;;;;;;5.75;1.85;;;20.00;61.30;;;;;;5047368;28;20400;-46
2023/05/20 09:48:02;;;;;;;8.80;2.40;;;20.10;62.10;;;;;;5033133;28;20061;-46
2023/05/20 09:50:29;;;;;;;4.43;2.03;;;20.00;61.80;;;;;;5029125;28;20029;-47
2023/05/20 09:53:01;;;;;;;5.45;2.53;;;20.00;62.00;;;;;;5052203;28;20738;-48
2023/05/20 09:55:29;;;;;;;6.70;2.65;;;20.10;59.90;;;;;;5014160;28;20037;-47
2023/05/20 09:58:00;;;;;;;7.32;2.28;;;19.90;60.60;;;;;;5044412;28;20032;-49
2023/05/20 10:00:27;;;;;;;4.60;2.10;;;19.80;61.50;;;;;;5036677;28;20033;-48
2023/05/20 10:02:58;;;;;;;7.75;2.08;;;19.90;62.40;;;;;;5036238;28;20171;-47
2023/05/20 10:05:32;;;;;;;4.40;2.28;;;19.90;63.10;;;;;;5036543;28;20063;-46
2023/05/20 10:08:15;;;;;;;4.63;2.60;;;19.60;61.80;;;;;;5041366;28;20029;-47
2023/05/20 10:11:09;;;;;;;4.68;2.38;;;19.50;62.30;;;;;;5055121;28;20021;-48
2023/05/20 10:13:50;;;;;;;6.22;2.58;;;19.50;63.50;;;;;;5054836;28;20330;-46
2023/05/20 10:16:55;;;;;;;6.35;1.88;;;19.60;61.90;;;;;;5053922;28;20035;-48
2023/05/20 10:19:39;;;;;;;6.43;2.08;;;19.70;64.00;;;;;;5036428;28;20458;-47
2023/05/20 10:22:08;;;;;;;7.65;2.63;;;20.00;61.90;;;;;;5037108;28;20049;-48
2023/05/20 10:24:39;;;;;;;11.00;3.43;;;19.90;60.60;;;;;;5047069;28;20464;-46
2023/05/20 10:27:13;;;;;;;6.78;2.72;;;19.90;61.30;;;;;;5037788;28;20025;-47
2023/05/20 10:30:14;;;;;;;6.28;2.15;;;20.20;61.70;;;;;;5054856;28;20127;-47
2023/05/20 10:32:52;;;;;;;5.65;2.38;;;20.20;61.40;;;;;;5018407;28;20029;-47
2023/05/20 10:35:25;;;;;;;6.33;2.47;;;20.30;62.20;;;;;;5054232;28;20028;-49
2023/05/20 10:37:53;;;;;;;5.10;2.60;;;20.50;61.20;;;;;;5053023;28;20330;-50
2023/05/20 10:40:22;;;;;;;8.27;2.75;;;20.40;58.30;;;;;;5055739;28;20104;-49
2023/05/20 10:42:49;;;;;;;3.60;2.13;;;20.30;59.00;;;;;;5055638;28;20036;-46
2023/05/20 10:45:26;;;;;;;6.45;2.72;;;20.20;61.60;;;;;;5053439;28;20744;-47
2023/05/20 10:47:59;;;;;;;5.00;2.17;;;20.20;60.80;;;;;;5032513;28;20447;-47
2023/05/20 10:50:35;;;;;;;4.47;2.30;;;20.30;61.00;;;;;;5054641;28;20378;-49
2023/05/20 10:53:10;;;;;;;4.15;2.05;;;20.40;60.50;;;;;;5053057;28;20347;-47
2023/05/20 10:55:41;;;;;;;4.97;2.60;;;20.50;63.00;;;;;;5033768;28;20443;-49
2023/05/20 10:58:09;;;;;;;8.02;2.47;;;20.50;59.30;;;;;;5044543;28;20358;-47
2023/05/20 11:00:36;;;;;;;5.43;2.58;;;20.50;61.70;;;;;;5038856;28;20039;-48
2023/05/20 11:03:04;;;;;;;5.72;2.58;;;20.50;61.80;;;;;;5047815;28;20025;-49
2023/05/20 11:05:30;;;;;;;6.35;2.30;;;20.70;60.50;;;;;;5037029;28;20047;-47
2023/05/20 11:08:07;;;;;;;4.68;2.65;;;20.60;58.80;;;;;;5053349;28;20032;-47
2023/05/20 11:10:41;;;;;;;5.20;2.28;;;20.20;59.00;;;;;;5054802;28;20032;-47
2023/05/20 11:13:10;;;;;;;6.15;2.95;;;20.40;60.20;;;;;;5053993;28;20447;-48
2023/05/20 11:15:37;;;;;;;2.83;1.85;;;20.40;59.80;;;;;;5038219;28;20029;-46
2023/05/20 11:18:04;;;;;;;6.63;2.63;;;20.30;61.30;;;;;;5038945;28;20099;-46
2023/05/20 11:20:34;;;;;;;5.20;2.65;;;20.60;61.30;;;;;;5051195;28;20032;-46
2023/05/20 11:23:02;;;;;;;3.97;1.58;;;20.80;58.50;;;;;;5055300;28;20029;-47
2023/05/20 11:25:29;;;;;;;5.30;2.47;;;20.80;58.50;;;;;;5039813;28;20038;-48
2023/05/20 11:27:56;;;;;;;5.47;1.90;;;20.50;57.10;;;;;;5054240;28;20043;-47
2023/05/20 11:30:23;;;;;;;5.93;2.05;;;20.40;59.50;;;;;;5053215;28;20032;-47
2023/05/20 11:33:02;;;;;;;6.18;1.92;;;20.40;61.90;;;;;;5054063;28;20200;-50
2023/05/20 11:35:31;;;;;;;4.57;2.10;;;20.30;58.20;;;;;;5031680;28;20045;-47
2023/05/20 11:38:17;;;;;;;4.78;1.50;;;20.30;59.40;;;;;;5043147;28;20040;-46
2023/05/20 11:41:03;;;;;;;6.65;1.90;;;20.30;57.80;;;;;;5050903;28;20446;-49
2023/05/20 11:43:33;;;;;;;3.92;1.75;;;20.10;58.90;;;;;;5050293;28;20466;-48
2023/05/20 11:46:00;;;;;;;3.17;1.48;;;20.20;58.60;;;;;;5053066;28;20024;-49
2023/05/20 11:48:27;;;;;;;4.15;1.90;;;20.40;60.20;;;;;;5050234;28;20037;-46
2023/05/20 11:50:55;;;;;;;5.70;2.10;;;20.30;60.10;;;;;;5049025;28;20032;-46
2023/05/20 11:53:23;;;;;;;6.75;2.20;;;20.20;60.30;;;;;;5035514;28;20029;-48
2023/05/20 11:55:57;;;;;;;3.10;1.58;;;20.30;60.90;;;;;;5050633;28;20098;-46
2023/05/20 11:58:26;;;;;;;4.95;1.75;;;20.20;56.50;;;;;;5053342;28;20132;-47
2023/05/20 12:00:52;;;;;;;5.53;1.42;;;20.00;59.90;;;;;;5034358;28;20056;-46
2023/05/20 12:03:21;;;;;;;5.25;1.75;;;19.70;61.40;;;;;;5033569;28;20446;-48
2023/05/20 12:05:49;;;;;;;5.10;1.70;;;19.80;66.60;;;;;;5032232;28;20116;-47
2023/05/20 12:08:16;;;;;;;6.10;1.95;;;19.60;61.40;;;;;;5043913;28;20033;-50
2023/05/20 12:10:46;;;;;;;2.83;1.25;;;19.70;60.90;;;;;;5048622;28;20032;-47
2023/05/20 12:13:13;;;;;;;6.97;2.53;;;19.60;62.40;;;;;;5045470;28;20103;-50
2023/05/20 12:15:42;;;;;;;6.25;1.98;;;19.60;60.00;;;;;;5047419;28;20065;-46
2023/05/20 12:18:12;;;;;;;5.32;1.50;;;19.50;60.70;;;;;;5048081;28;20020;-49
2023/05/20 12:20:38;;;;;;;5.15;1.98;;;19.60;61.40;;;;;;5049041;28;20041;-51
2023/05/20 12:23:05;;;;;;;6.65;1.75;;;19.50;60.00;;;;;;5051862;28;20087;-46
2023/05/20 12:25:32;;;;;;;6.30;2.70;;;19.50;60.00;;;;;;5048997;28;20378;-46
2023/05/20 12:28:00;;;;;;;5.50;2.33;;;19.50;60.60;;;;;;5032931;28;20328;-46
2023/05/20 12:30:27;;;;;;;4.88;2.00;;;19.50;63.40;;;;;;5049565;28;20053;-48
2023/05/20 12:32:54;;;;;;;4.93;2.17;;;19.60;63.50;;;;;;5052143;28;20463;-47
2023/05/20 12:35:40;;;;;;;5.38;1.90;;;19.50;63.20;;;;;;5031693;28;20062;-46
2023/05/20 12:38:08;;;;;;;6.93;2.40;;;19.50;61.20;;;;;;5034195;28;21439;-48
2023/05/20 12:40:35;;;;;;;5.35;1.88;;;19.60;62.90;;;;;;5031174;28;20493;-46
2023/05/20 12:43:03;;;;;;;6.80;2.22;;;19.60;61.80;;;;;;5033402;28;20039;-46
2023/05/20 12:45:29;;;;;;;3.65;1.90;;;19.60;62.20;;;;;;5049726;28;20029;-47
2023/05/20 12:47:56;;;;;;;4.65;1.90;;;19.80;62.00;;;;;;5052001;28;20102;-46
2023/05/20 12:50:26;;;;;;;5.30;2.17;;;19.80;61.90;;;;;;5050566;28;20447;-47
2023/05/20 12:52:53;;;;;;;;;;;19.60;59.80;;;;;;5053256;28;20037;-47
2023/05/20 12:55:20;;;;;;;6.45;2.10;;;19.70;61.20;;;;;;5041442;28;19923;-48